Time;durP1;ratioP1;P1;durP2;ratioP2;P2;SDS_P1;SDS_P2;PMS_P1;PMS_P2;Temp;Humidity;BMP_temperature;BMP_pressure;BME280_temperature;BME280_humidity;BME280_pressure;Samples;Min_cycle;Max_cycle;Signal;HPM_P1;HPM_P2
2022/11/10 00:00:01;;;;;;;12.13;2.63;;;9.90;99.90;;;;;;5015759;28;20136;-80
2022/11/10 00:02:27;;;;;;;14.67;3.30;;;9.80;99.90;;;;;;5015657;28;20108;-80
2022/11/10 00:04:52;;;;;;;9.80;2.43;;;9.80;99.90;;;;;;5015744;28;20045;-80
2022/11/10 00:07:18;;;;;;;15.60;3.13;;;9.80;99.90;;;;;;4981772;28;20410;-80
2022/11/10 00:09:44;;;;;;;13.87;2.97;;;9.80;99.90;;;;;;5014389;28;20054;-80
2022/11/10 00:12:09;;;;;;;15.63;3.30;;;9.80;99.90;;;;;;5013632;28;20069;-81
2022/11/10 00:17:19;;;;;;;17.87;3.33;;;9.80;99.90;;;;;;5015336;28;20129;-80
2022/11/10 00:19:45;;;;;;;16.73;2.90;;;9.80;99.90;;;;;;5015458;28;20466;-80
2022/11/10 00:22:11;;;;;;;16.53;2.97;;;9.70;99.90;;;;;;5015926;28;20049;-81
2022/11/10 00:24:36;;;;;;;15.67;3.80;;;9.80;99.90;;;;;;5015359;28;20107;-81
2022/11/10 00:27:02;;;;;;;12.43;3.10;;;9.70;99.90;;;;;;5014997;28;20056;-80
2022/11/10 00:29:28;;;;;;;10.27;2.53;;;9.80;99.90;;;;;;5016008;28;20050;-80
2022/11/10 00:31:53;;;;;;;12.57;2.70;;;9.70;99.90;;;;;;5014292;28;20052;-80
2022/11/10 00:34:19;;;;;;;13.40;3.30;;;9.70;99.90;;;;;;4998205;28;20108;-80
2022/11/10 00:36:45;;;;;;;10.30;2.90;;;9.70;99.90;;;;;;5014536;28;20073;-81
2022/11/10 00:39:11;;;;;;;12.70;3.33;;;9.70;99.90;;;;;;5014016;28;20132;-81
2022/11/10 00:41:37;;;;;;;17.33;3.40;;;9.80;99.90;;;;;;5015058;28;20057;-81
2022/11/10 00:44:02;;;;;;;14.37;2.90;;;9.80;99.90;;;;;;5015043;28;20272;-81
2022/11/10 00:46:28;;;;;;;14.10;2.83;;;9.80;99.90;;;;;;5014742;28;20053;-81
2022/11/10 00:48:54;;;;;;;14.30;3.60;;;9.80;99.90;;;;;;5013977;28;20045;-81
2022/11/10 00:51:23;;;;;;;13.60;2.67;;;9.90;99.90;;;;;;4981632;28;20049;-81
2022/11/10 00:53:49;;;;;;;18.17;3.30;;;9.80;99.90;;;;;;5013771;28;20482;-80
2022/11/10 00:56:16;;;;;;;16.70;3.27;;;9.70;99.90;;;;;;5013045;28;20309;-81
2022/11/10 00:58:42;;;;;;;14.03;3.20;;;9.70;99.90;;;;;;5014710;28;20292;-81
2022/11/10 01:01:09;;;;;;;10.43;2.80;;;9.70;99.90;;;;;;5013737;28;20736;-81
2022/11/10 01:03:34;;;;;;;20.27;3.70;;;9.70;99.90;;;;;;5014678;28;20285;-81
2022/11/10 01:06:13;;;;;;;15.07;3.87;;;9.70;99.90;;;;;;5014562;28;20468;-81
2022/11/10 01:08:40;;;;;;;14.20;3.10;;;9.60;99.90;;;;;;5015039;28;20084;-81
2022/11/10 01:11:11;;;;;;;9.63;3.30;;;9.60;99.90;;;;;;5015221;28;20285;-81
2022/11/10 01:13:37;;;;;;;15.30;4.03;;;9.60;99.90;;;;;;5014456;28;20285;-81
2022/11/10 01:16:05;;;;;;;18.20;3.53;;;9.60;99.90;;;;;;5014365;28;20355;-81
2022/11/10 01:18:31;;;;;;;13.47;3.30;;;9.60;99.90;;;;;;5014465;28;20054;-81
2022/11/10 01:20:56;;;;;;;18.07;3.60;;;9.60;99.90;;;;;;5013665;28;20296;-80
2022/11/10 01:23:22;;;;;;;17.00;3.43;;;9.60;99.90;;;;;;5013163;28;20049;-80
2022/11/10 01:25:48;;;;;;;21.43;5.20;;;9.50;99.90;;;;;;4996825;28;20478;-80
2022/11/10 01:28:13;;;;;;;18.70;4.00;;;9.50;99.90;;;;;;5029623;28;20128;-81
2022/11/10 01:30:39;;;;;;;18.40;3.50;;;9.50;99.90;;;;;;5014509;28;20046;-80
2022/11/10 01:33:05;;;;;;;16.60;3.93;;;9.50;99.90;;;;;;5013556;28;20537;-80
2022/11/10 01:35:33;;;;;;;21.83;4.10;;;9.50;99.90;;;;;;4997525;28;20053;-81
2022/11/10 01:37:58;;;;;;;15.40;3.53;;;9.50;99.90;;;;;;5014103;28;20050;-81
2022/11/10 01:40:24;;;;;;;18.97;3.87;;;9.50;99.90;;;;;;5013163;28;20285;-81
2022/11/10 01:42:52;;;;;;;13.13;3.30;;;9.50;99.90;;;;;;5014076;28;20425;-81
2022/11/10 01:45:23;;;;;;;16.20;4.47;;;9.50;99.90;;;;;;5013083;28;20343;-81
2022/11/10 01:47:50;;;;;;;17.17;4.47;;;9.50;99.90;;;;;;4996713;28;20285;-81
2022/11/10 01:50:17;;;;;;;15.77;3.73;;;9.50;99.90;;;;;;5012792;28;20854;-81
2022/11/10 01:52:47;;;;;;;17.43;3.70;;;9.50;99.90;;;;;;5029501;28;20625;-81
2022/11/10 01:55:12;;;;;;;17.97;4.57;;;9.50;99.90;;;;;;5013719;28;20301;-80
2022/11/10 01:57:39;;;;;;;22.00;5.00;;;9.50;99.90;;;;;;5014494;28;20618;-80
2022/11/10 02:00:06;;;;;;;17.20;3.83;;;9.50;99.90;;;;;;5013889;28;20084;-81
2022/11/10 02:02:42;;;;;;;16.87;3.80;;;9.50;99.90;;;;;;5014397;28;20277;-80
2022/11/10 02:05:08;;;;;;;;;;;9.50;99.90;;;;;;5015141;28;20276;-80
2022/11/10 02:07:34;;;;;;;17.13;4.10;;;9.50;99.90;;;;;;5012927;28;20346;-80
2022/11/10 02:10:04;;;;;;;19.60;4.27;;;9.50;99.90;;;;;;5012857;28;20046;-81
2022/11/10 02:12:37;;;;;;;18.27;3.97;;;9.50;99.90;;;;;;5012761;28;20777;-81
2022/11/10 02:15:05;;;;;;;20.30;4.20;;;9.50;99.90;;;;;;4996025;28;20299;-80
2022/11/10 02:17:31;;;;;;;24.40;4.20;;;9.50;99.90;;;;;;5012445;28;20296;-80
2022/11/10 02:20:03;;;;;;;16.33;3.97;;;9.50;99.90;;;;;;5012511;28;20293;-80
2022/11/10 02:22:32;;;;;;;16.30;4.40;;;9.50;99.90;;;;;;5013660;28;20057;-80
2022/11/10 02:24:58;;;;;;;18.20;4.67;;;9.50;99.90;;;;;;5012927;28;20343;-80
2022/11/10 02:27:24;;;;;;;19.20;4.07;;;9.50;99.90;;;;;;5013495;28;20316;-80
2022/11/10 02:29:50;;;;;;;14.27;4.33;;;9.50;99.90;;;;;;5013659;28;20749;-80
2022/11/10 02:32:16;;;;;;;18.47;4.60;;;9.50;99.90;;;;;;5014071;28;20433;-80
2022/11/10 02:34:41;;;;;;;15.43;3.43;;;9.50;99.90;;;;;;5014265;28;20046;-80
2022/11/10 02:37:09;;;;;;;19.67;4.17;;;9.60;99.90;;;;;;5017334;28;20521;-80
2022/11/10 02:39:36;;;;;;;19.90;4.23;;;9.60;99.90;;;;;;5015857;28;20049;-80
2022/11/10 02:42:03;;;;;;;22.77;4.10;;;9.60;99.90;;;;;;5017810;28;20285;-80
2022/11/10 02:44:29;;;;;;;20.13;4.17;;;9.60;99.90;;;;;;5017226;28;20296;-80
2022/11/10 02:46:55;;;;;;;19.77;3.60;;;9.60;99.90;;;;;;5018298;28;20320;-80
2022/11/10 02:49:21;;;;;;;17.70;4.30;;;9.60;99.90;;;;;;5017383;28;20685;-81
2022/11/10 02:51:46;;;;;;;20.30;3.67;;;9.60;99.90;;;;;;5017153;28;20054;-80
2022/11/10 02:54:12;;;;;;;20.23;4.00;;;9.60;99.90;;;;;;5017088;28;20124;-80
2022/11/10 02:56:38;;;;;;;17.17;4.60;;;9.60;99.90;;;;;;5017371;28;20116;-80
2022/11/10 02:59:03;;;;;;;19.60;4.47;;;9.60;99.90;;;;;;5015774;28;20148;-80
2022/11/10 03:01:29;;;;;;;22.23;3.80;;;9.70;99.90;;;;;;5016559;28;20096;-81
2022/11/10 03:03:55;;;;;;;17.53;3.80;;;9.70;99.90;;;;;;5016904;28;20386;-80
2022/11/10 03:06:21;;;;;;;16.33;3.67;;;9.70;99.90;;;;;;5015662;28;20049;-81
2022/11/10 03:08:46;;;;;;;18.37;4.00;;;9.70;99.90;;;;;;5016418;28;20085;-81
2022/11/10 03:11:12;;;;;;;19.87;3.63;;;9.70;99.90;;;;;;5017044;28;20560;-81
2022/11/10 03:13:38;;;;;;;17.63;3.00;;;9.70;99.90;;;;;;5016762;28;20054;-80
2022/11/10 03:16:04;;;;;;;19.60;3.87;;;9.70;99.90;;;;;;5015787;28;20046;-80
2022/11/10 03:18:29;;;;;;;15.67;4.00;;;9.70;99.90;;;;;;5016553;28;20045;-80
2022/11/10 03:20:55;;;;;;;18.57;3.83;;;9.70;99.90;;;;;;5015642;28;20653;-80
2022/11/10 03:23:21;;;;;;;18.97;3.80;;;9.70;99.90;;;;;;5016470;28;20045;-80
2022/11/10 03:25:46;;;;;;;16.53;4.30;;;9.70;99.90;;;;;;5017061;28;20125;-80
2022/11/10 03:28:13;;;;;;;20.70;3.20;;;9.60;99.90;;;;;;5015711;28;20489;-80
2022/11/10 03:30:39;;;;;;;21.67;4.67;;;9.70;99.90;;;;;;4999311;28;20069;-81
2022/11/10 03:33:05;;;;;;;18.20;3.80;;;9.60;99.90;;;;;;5015360;28;20339;-81
2022/11/10 03:35:31;;;;;;;17.73;3.43;;;9.70;99.90;;;;;;5014968;28;20362;-81
2022/11/10 03:37:57;;;;;;;21.43;4.00;;;9.60;99.90;;;;;;5015361;28;20292;-81
2022/11/10 03:40:22;;;;;;;21.70;5.00;;;9.60;99.90;;;;;;5014895;28;20132;-81
2022/11/10 03:42:48;;;;;;;17.03;4.23;;;9.60;99.90;;;;;;4998686;28;20050;-81
2022/11/10 03:45:14;;;;;;;29.37;6.43;;;9.60;99.90;;;;;;5016585;28;20057;-81
2022/11/10 03:47:43;;;;;;;14.70;3.77;;;9.60;99.90;;;;;;5015496;28;20050;-81
2022/11/10 03:50:09;;;;;;;23.77;5.00;;;9.60;99.90;;;;;;5015192;28;20288;-81
2022/11/10 03:52:38;;;;;;;24.80;4.97;;;9.70;99.90;;;;;;5014970;28;20292;-81
2022/11/10 03:55:04;;;;;;;19.43;4.30;;;9.70;99.90;;;;;;5015487;28;20066;-81
2022/11/10 03:57:30;;;;;;;21.90;4.63;;;9.70;99.90;;;;;;5015851;28;20307;-81
2022/11/10 03:59:55;;;;;;;18.10;4.67;;;9.70;99.90;;;;;;5014842;28;20753;-81
2022/11/10 04:02:21;;;;;;;27.23;4.70;;;9.70;99.90;;;;;;5014858;28;20056;-81
2022/11/10 04:10:20;;;;;;;19.20;4.63;;;9.70;99.90;;;;;;4969204;28;20289;-81
2022/11/10 04:15:42;;;;;;;18.67;3.43;;;9.80;99.90;;;;;;5015428;28;20041;-81
2022/11/10 04:18:25;;;;;;;22.17;4.40;;;9.70;99.90;;;;;;5014515;28;20288;-81
2022/11/10 04:21:02;;;;;;;24.47;4.57;;;9.80;99.90;;;;;;5015178;28;20295;-81
2022/11/10 04:23:33;;;;;;;23.33;4.27;;;9.80;99.90;;;;;;5015333;28;20285;-81
2022/11/10 04:28:56;;;;;;;28.27;5.03;;;9.80;99.90;;;;;;5014240;28;20289;-81
2022/11/10 04:31:24;;;;;;;27.23;5.23;;;9.80;99.90;;;;;;5014103;28;20285;-81
2022/11/10 04:33:51;;;;;;;21.90;4.33;;;9.80;99.90;;;;;;5015352;28;20591;-82
2022/11/10 04:36:19;;;;;;;26.80;4.77;;;9.80;99.90;;;;;;5014979;28;20301;-81
2022/11/10 04:38:46;;;;;;;19.63;4.07;;;9.80;99.90;;;;;;5015378;28;20343;-81
2022/11/10 04:41:12;;;;;;;20.63;4.60;;;9.80;99.90;;;;;;5015586;28;20388;-81
2022/11/10 04:43:38;;;;;;;23.80;4.83;;;9.80;99.90;;;;;;5013898;28;20288;-81
2022/11/10 04:46:05;;;;;;;18.83;4.37;;;9.80;99.90;;;;;;5014033;28;20293;-81
2022/11/10 04:48:33;;;;;;;20.90;4.47;;;9.80;99.90;;;;;;5014322;28;20378;-81
2022/11/10 04:51:03;;;;;;;24.77;5.50;;;9.80;99.90;;;;;;5014879;28;20412;-81
2022/11/10 04:53:29;;;;;;;25.17;3.83;;;9.80;99.90;;;;;;5014751;28;20764;-81
2022/11/10 04:55:55;;;;;;;26.00;5.07;;;9.80;99.90;;;;;;5013368;28;20301;-80
2022/11/10 04:58:21;;;;;;;24.37;4.97;;;9.80;99.90;;;;;;5014335;28;20463;-80
2022/11/10 05:00:47;;;;;;;19.43;3.47;;;9.80;99.90;;;;;;5013759;28;20501;-80
2022/11/10 05:03:13;;;;;;;22.00;4.57;;;9.80;99.90;;;;;;5014645;28;20457;-80
2022/11/10 05:05:39;;;;;;;22.23;4.20;;;9.80;99.90;;;;;;4981071;28;20389;-80
2022/11/10 05:08:05;;;;;;;29.20;4.80;;;9.80;99.90;;;;;;5014751;28;20780;-80
2022/11/10 05:10:32;;;;;;;29.37;5.37;;;9.80;99.90;;;;;;5013565;28;20288;-80
2022/11/10 05:12:58;;;;;;;24.10;4.43;;;9.80;99.90;;;;;;5014407;28;20784;-80
2022/11/10 05:15:24;;;;;;;29.03;4.30;;;9.80;99.90;;;;;;5014339;28;20391;-81
2022/11/10 05:17:51;;;;;;;27.80;5.37;;;9.80;99.90;;;;;;5014125;28;20375;-81
2022/11/10 05:20:18;;;;;;;19.80;4.33;;;9.80;99.90;;;;;;5013166;28;20285;-80
2022/11/10 05:25:35;;;;;;;22.83;4.30;;;9.80;99.90;;;;;;5013323;28;20376;-81
2022/11/10 05:28:01;;;;;;;19.80;3.97;;;9.70;99.90;;;;;;5013129;28;20281;-81
2022/11/10 05:30:27;;;;;;;23.77;4.97;;;9.70;99.90;;;;;;5013238;28;20637;-81
2022/11/10 05:32:53;;;;;;;27.30;5.60;;;9.70;99.90;;;;;;4997135;28;20293;-81
2022/11/10 05:35:19;;;;;;;19.40;4.23;;;9.70;99.90;;;;;;5014085;28;20057;-81
2022/11/10 05:37:44;;;;;;;19.87;4.37;;;9.80;99.90;;;;;;5014040;28;20046;-80
2022/11/10 05:40:10;;;;;;;26.30;5.03;;;9.80;99.90;;;;;;5014152;28;20180;-80
2022/11/10 05:42:47;;;;;;;25.70;4.43;;;9.80;99.90;;;;;;5014010;28;20132;-81
2022/11/10 05:45:14;;;;;;;34.53;4.80;;;9.80;99.90;;;;;;5013340;28;20060;-81
2022/11/10 05:47:40;;;;;;;27.70;4.53;;;9.80;99.90;;;;;;4996726;28;20288;-81
2022/11/10 05:50:07;;;;;;;25.20;4.07;;;9.80;99.90;;;;;;5013714;28;20284;-81
2022/11/10 05:52:34;;;;;;;18.43;4.03;;;9.80;99.90;;;;;;4996473;28;20772;-81
2022/11/10 05:55:00;;;;;;;21.20;4.43;;;9.80;99.90;;;;;;5013551;28;20293;-81
2022/11/10 05:57:26;;;;;;;29.30;4.53;;;9.80;99.90;;;;;;5013856;28;20285;-81
2022/11/10 05:59:51;;;;;;;21.40;4.10;;;9.80;99.90;;;;;;5014110;28;20284;-81
2022/11/10 06:02:17;;;;;;;27.73;4.33;;;9.80;99.90;;;;;;5013780;28;20375;-81
2022/11/10 06:04:43;;;;;;;30.13;4.30;;;9.80;99.90;;;;;;5013918;28;20049;-81
2022/11/10 06:07:08;;;;;;;19.70;4.23;;;9.80;99.90;;;;;;5013263;28;20516;-81
2022/11/10 06:09:35;;;;;;;24.93;4.03;;;9.80;99.90;;;;;;5014110;28;20053;-81
2022/11/10 06:12:02;;;;;;;24.93;5.40;;;9.80;99.90;;;;;;5017879;28;20054;-81
2022/11/10 06:14:28;;;;;;;22.57;4.37;;;9.80;99.90;;;;;;5016839;28;20292;-81
2022/11/10 06:16:53;;;;;;;22.27;3.93;;;9.80;99.90;;;;;;5018176;28;20822;-81
2022/11/10 06:19:19;;;;;;;32.30;4.40;;;9.80;99.90;;;;;;5017736;28;20048;-81
2022/11/10 06:21:45;;;;;;;26.87;4.70;;;9.80;99.90;;;;;;5017009;28;20128;-81
2022/11/10 06:24:10;;;;;;;24.67;4.50;;;9.80;99.90;;;;;;5017473;28;20462;-81
2022/11/10 06:26:36;;;;;;;27.30;4.67;;;9.80;99.90;;;;;;5016623;28;20121;-82
2022/11/10 06:29:02;;;;;;;20.50;3.90;;;9.70;99.90;;;;;;5017573;28;20119;-82
2022/11/10 06:31:28;;;;;;;25.80;5.00;;;9.80;99.90;;;;;;5017476;28;20046;-82
2022/11/10 06:33:54;;;;;;;26.53;4.50;;;9.70;99.90;;;;;;5017745;28;20096;-82
2022/11/10 06:36:20;;;;;;;19.77;4.70;;;9.80;99.90;;;;;;5016141;28;20045;-82
2022/11/10 06:38:46;;;;;;;23.57;4.40;;;9.70;99.90;;;;;;5016254;28;20291;-82
2022/11/10 06:41:12;;;;;;;21.77;5.23;;;9.70;99.90;;;;;;5016411;28;20669;-82
2022/11/10 06:43:37;;;;;;;27.70;5.10;;;9.70;99.90;;;;;;5017268;28;20057;-82
2022/11/10 06:46:03;;;;;;;26.83;4.73;;;9.70;99.90;;;;;;5017269;28;20462;-81
2022/11/10 06:48:29;;;;;;;20.83;4.83;;;9.70;99.90;;;;;;5016001;28;20100;-81
2022/11/10 06:50:54;;;;;;;24.13;4.73;;;9.70;99.90;;;;;;5016141;28;20140;-82
2022/11/10 06:53:20;;;;;;;30.53;4.73;;;9.70;99.90;;;;;;5016029;28;20050;-82
2022/11/10 06:55:46;;;;;;;22.33;4.73;;;9.70;99.90;;;;;;5016906;28;20522;-82
2022/11/10 06:58:12;;;;;;;25.80;5.03;;;9.70;99.90;;;;;;5016592;28;20107;-81
2022/11/10 07:00:39;;;;;;;25.00;4.77;;;9.80;99.90;;;;;;4999582;28;20371;-81
2022/11/10 07:03:06;;;;;;;29.00;5.07;;;9.80;99.90;;;;;;5016250;28;20053;-81
2022/11/10 07:05:34;;;;;;;29.67;5.57;;;9.80;99.90;;;;;;5017667;28;20356;-81
2022/11/10 07:08:06;;;;;;;23.83;4.37;;;9.90;99.90;;;;;;5015517;28;20329;-81
2022/11/10 07:10:32;;;;;;;25.90;4.60;;;9.90;99.90;;;;;;5015837;28;20390;-81
2022/11/10 07:13:00;;;;;;;17.93;4.20;;;9.90;99.90;;;;;;4999093;28;20404;-81
2022/11/10 07:15:25;;;;;;;22.50;4.80;;;9.90;99.90;;;;;;4999621;28;20301;-81
2022/11/10 07:17:51;;;;;;;32.77;5.00;;;9.90;99.90;;;;;;5015642;28;20414;-81
2022/11/10 07:20:17;;;;;;;30.50;4.70;;;9.90;99.90;;;;;;4999791;28;20048;-81
2022/11/10 07:22:43;;;;;;;24.53;4.50;;;9.90;99.90;;;;;;5015909;28;20042;-81
2022/11/10 07:25:09;;;;;;;24.27;4.63;;;9.90;99.90;;;;;;5016253;28;20508;-81
2022/11/10 07:27:34;;;;;;;25.40;5.07;;;9.90;99.90;;;;;;4999553;28;20050;-81
2022/11/10 07:30:00;;;;;;;31.43;4.77;;;9.90;99.90;;;;;;5016307;28;20660;-81
2022/11/10 07:32:26;;;;;;;28.27;5.53;;;9.90;99.90;;;;;;5016421;28;20129;-81
2022/11/10 07:34:52;;;;;;;28.17;4.70;;;9.90;99.90;;;;;;5016590;28;20057;-81
2022/11/10 07:37:17;;;;;;;24.20;4.80;;;9.90;99.90;;;;;;5015860;28;20045;-81
2022/11/10 07:39:43;;;;;;;23.77;4.90;;;9.90;99.90;;;;;;5015148;28;20046;-81
2022/11/10 07:42:08;;;;;;;27.67;5.47;;;9.90;99.90;;;;;;5014985;28;20054;-81
2022/11/10 07:44:34;;;;;;;23.73;4.53;;;9.90;99.90;;;;;;5015779;28;20042;-81
2022/11/10 07:47:00;;;;;;;30.47;4.83;;;9.90;99.90;;;;;;5016123;28;20042;-81
2022/11/10 07:49:25;;;;;;;25.50;5.17;;;9.90;99.90;;;;;;5016095;28;20046;-81
2022/11/10 07:51:51;;;;;;;27.00;5.17;;;9.90;99.90;;;;;;5014828;28;20048;-81
2022/11/10 07:54:17;;;;;;;26.90;4.90;;;10.00;99.90;;;;;;5015565;28;20089;-81
2022/11/10 07:56:42;;;;;;;22.33;4.73;;;9.90;99.90;;;;;;5014465;28;20462;-81
2022/11/10 07:59:08;;;;;;;30.27;5.77;;;10.00;99.90;;;;;;5015677;28;20433;-81
2022/11/10 08:01:34;;;;;;;21.73;5.00;;;10.10;99.90;;;;;;5015827;28;20073;-81
2022/11/10 08:03:59;;;;;;;22.00;4.53;;;10.10;99.90;;;;;;5016683;28;20080;-81
2022/11/10 08:06:25;;;;;;;26.37;5.07;;;10.20;99.90;;;;;;5015139;28;20042;-81
2022/11/10 08:08:51;;;;;;;27.63;4.97;;;10.30;99.90;;;;;;4999175;28;20070;-81
2022/11/10 08:11:17;;;;;;;21.57;4.30;;;10.30;99.90;;;;;;5015742;28;20085;-81
2022/11/10 08:13:42;;;;;;;31.07;5.37;;;10.40;99.90;;;;;;4998228;28;20115;-81
2022/11/10 08:16:08;;;;;;;30.17;5.33;;;10.50;99.90;;;;;;5014811;28;20038;-81
2022/11/10 08:18:34;;;;;;;23.43;4.83;;;10.60;99.90;;;;;;5014538;28;20108;-81
2022/11/10 08:21:01;;;;;;;25.27;5.17;;;10.70;99.90;;;;;;4998172;28;20053;-77
2022/11/10 08:23:29;;;;;;;27.03;5.57;;;10.70;99.90;;;;;;5014301;28;20053;-77
2022/11/10 08:25:59;;;;;;;31.27;5.10;;;10.70;99.90;;;;;;5015385;28;20276;-79
2022/11/10 08:28:25;;;;;;;26.53;4.73;;;10.70;99.90;;;;;;5015191;28;20293;-79
2022/11/10 08:30:51;;;;;;;23.27;4.70;;;10.80;99.90;;;;;;5014149;28;20295;-79
2022/11/10 08:33:18;;;;;;;24.57;4.80;;;10.80;99.90;;;;;;5014461;28;20382;-80
2022/11/10 08:35:47;;;;;;;24.27;5.23;;;10.80;99.90;;;;;;5015651;28;20744;-79
2022/11/10 08:38:20;;;;;;;28.03;5.47;;;10.90;99.90;;;;;;5014026;28;20288;-77
2022/11/10 08:40:46;;;;;;;25.77;4.93;;;10.80;99.90;;;;;;5015145;28;20292;-78
2022/11/10 08:43:13;;;;;;;25.47;4.30;;;10.90;99.90;;;;;;5014119;28;20296;-76
2022/11/10 08:45:40;;;;;;;32.13;5.90;;;10.90;99.90;;;;;;5014579;28;20289;-77
2022/11/10 08:48:12;;;;;;;19.93;4.27;;;10.90;99.90;;;;;;5014819;28;20304;-77
2022/11/10 08:50:38;;;;;;;29.23;5.23;;;10.90;99.90;;;;;;5014251;28;20387;-77
2022/11/10 08:53:11;;;;;;;25.17;4.90;;;10.90;99.90;;;;;;5014927;28;20288;-77
2022/11/10 08:55:37;;;;;;;25.23;4.77;;;11.00;99.90;;;;;;5013539;28;20312;-77
2022/11/10 08:58:04;;;;;;;23.13;5.10;;;11.00;99.90;;;;;;5015068;28;20292;-78
2022/11/10 09:00:31;;;;;;;24.77;4.87;;;11.00;99.90;;;;;;5013460;28;20100;-77
2022/11/10 09:03:05;;;;;;;25.87;4.50;;;11.10;99.90;;;;;;5014543;28;20289;-78
2022/11/10 09:05:30;;;;;;;22.10;4.70;;;11.20;99.90;;;;;;5013391;28;20299;-79
2022/11/10 09:07:56;;;;;;;26.10;4.97;;;11.20;99.90;;;;;;5014649;28;20375;-76
2022/11/10 09:10:22;;;;;;;32.83;5.53;;;11.30;99.90;;;;;;5015207;28;20149;-76
2022/11/10 09:12:48;;;;;;;25.13;4.10;;;11.40;99.90;;;;;;5014537;28;20508;-78
2022/11/10 09:15:13;;;;;;;28.47;4.53;;;11.40;99.90;;;;;;5013513;28;20050;-78
2022/11/10 09:17:40;;;;;;;21.67;4.67;;;11.50;99.90;;;;;;5013502;28;20367;-78
2022/11/10 09:20:07;;;;;;;24.60;4.53;;;11.60;99.90;;;;;;5014437;28;20053;-77
2022/11/10 09:22:35;;;;;;;29.23;5.27;;;11.60;99.90;;;;;;5014385;28;20285;-77
2022/11/10 09:25:01;;;;;;;27.37;4.83;;;11.70;99.90;;;;;;5014306;28;20335;-78
2022/11/10 09:27:26;;;;;;;16.93;4.50;;;11.70;99.90;;;;;;5014289;28;20313;-76
2022/11/10 09:29:52;;;;;;;23.50;4.63;;;11.70;99.90;;;;;;5013339;28;20092;-77
2022/11/10 09:32:18;;;;;;;20.93;4.47;;;11.70;99.90;;;;;;5014840;28;20058;-78
2022/11/10 09:34:44;;;;;;;20.97;4.57;;;11.80;99.90;;;;;;5014224;28;20045;-77
2022/11/10 09:37:09;;;;;;;25.87;5.60;;;11.80;99.90;;;;;;5012642;28;20053;-78
2022/11/10 09:39:35;;;;;;;18.13;4.33;;;11.80;99.90;;;;;;5013085;28;20191;-79
2022/11/10 09:42:05;;;;;;;24.80;4.87;;;11.80;99.90;;;;;;5014646;28;20053;-77
2022/11/10 09:44:41;;;;;;;28.07;5.30;;;11.80;99.90;;;;;;5013865;28;20355;-76
2022/11/10 09:47:14;;;;;;;21.67;4.43;;;11.80;99.90;;;;;;5014411;28;20273;-77
2022/11/10 09:49:47;;;;;;;21.77;4.57;;;11.90;99.90;;;;;;5014751;28;20292;-80
2022/11/10 09:52:14;;;;;;;25.40;5.37;;;11.90;99.90;;;;;;5013961;28;20367;-80
2022/11/10 09:55:01;;;;;;;20.13;5.67;;;11.90;99.90;;;;;;5012285;28;20280;-82
2022/11/10 09:57:26;;;;;;;20.27;4.73;;;11.90;99.90;;;;;;5012381;28;20315;-83
2022/11/10 09:59:53;;;;;;;20.93;4.73;;;12.00;99.90;;;;;;5012780;28;20297;-82
2022/11/10 10:02:57;;;;;;;26.90;5.30;;;12.00;99.90;;;;;;4996433;28;20390;-82
2022/11/10 10:06:01;;;;;;;23.83;4.50;;;12.00;99.90;;;;;;5002347;28;20300;-80
2022/11/10 10:08:57;;;;;;;21.30;4.40;;;12.10;99.90;;;;;;5001595;28;20295;-82
2022/11/10 10:11:32;;;;;;;18.40;3.87;;;12.10;99.90;;;;;;5014453;28;20289;-83
2022/11/10 10:14:20;;;;;;;24.63;4.88;;;12.10;99.90;;;;;;4996636;28;20307;-85
2022/11/10 10:17:29;;;;;;;27.27;5.13;;;12.20;99.90;;;;;;5014210;28;20038;-82
2022/11/10 10:20:03;;;;;;;27.77;4.87;;;12.30;99.90;;;;;;4995149;28;20291;-82
2022/11/10 10:22:37;;;;;;;18.58;4.60;;;12.30;99.90;;;;;;4995178;28;20396;-87
2022/11/10 10:25:17;;;;;;;20.43;5.00;;;12.30;99.90;;;;;;5012886;28;20069;-77
2022/11/10 10:27:45;;;;;;;18.27;4.37;;;12.40;99.90;;;;;;5013006;28;20427;-78
2022/11/10 10:30:19;;;;;;;23.73;4.83;;;12.40;99.90;;;;;;5014413;28;20602;-78
2022/11/10 10:32:45;;;;;;;21.47;4.83;;;12.40;99.90;;;;;;5013549;28;20625;-78
2022/11/10 10:35:15;;;;;;;21.47;4.87;;;12.40;99.90;;;;;;5013790;28;20284;-76
2022/11/10 10:37:49;;;;;;;22.83;4.90;;;12.40;99.90;;;;;;5012529;28;20061;-78
2022/11/10 10:40:21;;;;;;;28.37;5.67;;;12.50;99.90;;;;;;5013526;28;20287;-74
2022/11/10 10:42:47;;;;;;;20.67;4.80;;;12.60;99.90;;;;;;5012516;28;20350;-76
2022/11/10 10:45:27;;;;;;;25.63;5.50;;;12.60;99.90;;;;;;5013930;28;20289;-76
2022/11/10 10:47:55;;;;;;;24.50;4.90;;;12.60;99.90;;;;;;5013362;28;20050;-76
2022/11/10 10:50:23;;;;;;;22.70;4.73;;;12.60;99.90;;;;;;5013452;28;20321;-77
2022/11/10 10:53:15;;;;;;;27.00;5.37;;;12.70;99.90;;;;;;5013393;28;20285;-76
2022/11/10 10:56:00;;;;;;;19.30;5.60;;;12.60;99.90;;;;;;5013966;28;20315;-78
2022/11/10 10:58:32;;;;;;;28.77;5.50;;;12.60;99.90;;;;;;5016987;28;20292;-77
2022/11/10 11:01:16;;;;;;;29.20;5.50;;;12.60;99.90;;;;;;5016838;28;20050;-77
2022/11/10 11:03:47;;;;;;;23.03;5.90;;;12.60;99.90;;;;;;5015959;28;20293;-76
2022/11/10 11:06:15;;;;;;;28.27;5.73;;;12.60;99.90;;;;;;5016497;28;20301;-76
2022/11/10 11:09:00;;;;;;;22.20;4.77;;;12.60;99.90;;;;;;5015928;28;20289;-76
2022/11/10 11:11:31;;;;;;;25.42;5.13;;;12.60;99.90;;;;;;5016905;28;20331;-76
2022/11/10 11:14:32;;;;;;;20.67;4.90;;;12.70;99.90;;;;;;5016686;28;20444;-76
2022/11/10 11:17:10;;;;;;;18.47;4.57;;;12.70;99.90;;;;;;5014610;28;20308;-78
2022/11/10 11:19:38;;;;;;;28.03;5.43;;;12.70;99.90;;;;;;5013829;28;20376;-78
2022/11/10 11:22:24;;;;;;;22.07;5.27;;;12.70;99.90;;;;;;5016674;28;20637;-77
2022/11/10 11:25:14;;;;;;;20.70;4.73;;;12.70;99.90;;;;;;5017407;28;20284;-77
2022/11/10 11:27:42;;;;;;;25.03;4.97;;;12.70;99.90;;;;;;4999275;28;20327;-76
2022/11/10 11:30:17;;;;;;;23.53;5.23;;;12.70;99.90;;;;;;5015491;28;20391;-80
2022/11/10 11:33:16;;;;;;;25.20;5.30;;;12.70;99.90;;;;;;4999336;28;20291;-78
2022/11/10 11:35:45;;;;;;;25.67;4.67;;;12.70;99.90;;;;;;5016843;28;20045;-75
2022/11/10 11:38:22;;;;;;;30.23;5.13;;;12.70;99.90;;;;;;5015270;28;20388;-82
2022/11/10 11:41:09;;;;;;;23.50;5.07;;;12.70;99.90;;;;;;5016904;28;20313;-78
2022/11/10 11:44:33;;;;;;;21.63;5.13;;;12.70;99.90;;;;;;5015573;28;20776;-78
2022/11/10 11:47:22;;;;;;;18.43;5.07;;;12.70;99.90;;;;;;4997611;28;20709;-75
2022/11/10 11:50:33;;;;;;;24.63;4.30;;;12.70;99.90;;;;;;4997936;28;20763;-75
2022/11/10 11:53:10;;;;;;;26.80;5.40;;;12.70;99.90;;;;;;5005747;28;20293;-78
2022/11/10 11:55:35;;;;;;;22.07;5.00;;;12.70;99.90;;;;;;5015796;28;20391;-76
2022/11/10 11:58:32;;;;;;;25.60;4.60;;;12.70;99.90;;;;;;5014253;28;20868;-78
2022/11/10 12:01:15;;;;;;;31.53;5.00;;;12.70;99.90;;;;;;5016264;28;20194;-77
2022/11/10 12:04:02;;;;;;;20.77;5.07;;;12.70;99.90;;;;;;5016782;28;20329;-76
2022/11/10 12:06:36;;;;;;;23.63;5.40;;;12.80;99.90;;;;;;5015025;28;20281;-78
2022/11/10 12:09:36;;;;;;;23.33;4.22;;;12.80;99.90;;;;;;5014987;28;20289;-78
2022/11/10 12:12:32;;;;;;;18.90;4.23;;;12.80;99.90;;;;;;5015616;28;20049;-79
2022/11/10 12:15:07;;;;;;;;;;;12.80;99.90;;;;;;5015971;28;20281;-78
2022/11/10 12:17:56;;;;;;;26.13;4.43;;;12.80;99.90;;;;;;5016256;28;19988;-78
2022/11/10 12:20:57;;;;;;;24.33;4.63;;;12.80;99.90;;;;;;5016253;28;20343;-78
2022/11/10 12:23:41;;;;;;;18.80;3.50;;;12.90;99.90;;;;;;5016221;28;20606;-76
2022/11/10 12:26:33;;;;;;;23.37;3.87;;;12.90;99.90;;;;;;5015146;28;20700;-77
2022/11/10 12:29:35;;;;;;;19.57;4.03;;;12.90;99.90;;;;;;5015373;28;20281;-78
2022/11/10 12:32:11;;;;;;;21.10;4.40;;;13.00;99.90;;;;;;5014329;28;20285;-74
2022/11/10 12:35:20;;;;;;;24.37;4.77;;;13.00;99.90;;;;;;5015235;28;20280;-84
2022/11/10 12:37:52;;;;;;;17.93;4.03;;;13.00;99.90;;;;;;4997029;28;20321;-78
2022/11/10 12:40:30;;;;;;;25.37;4.57;;;13.00;99.90;;;;;;5010465;28;20303;-80
2022/11/10 12:43:00;;;;;;;23.20;3.80;;;13.00;99.90;;;;;;5015451;28;20284;-81
2022/11/10 12:45:38;;;;;;;16.37;3.47;;;12.90;99.90;;;;;;5015549;28;20285;-82
2022/11/10 12:48:05;;;;;;;20.57;4.60;;;12.90;99.90;;;;;;5031399;28;20350;-79
2022/11/10 12:50:39;;;;;;;18.70;3.97;;;12.90;99.90;;;;;;5030268;28;20304;-83
2022/11/10 12:53:21;;;;;;;19.58;3.55;;;12.90;99.90;;;;;;5014061;28;20330;-79
2022/11/10 12:55:56;;;;;;;23.80;4.40;;;12.90;99.90;;;;;;5014669;28;20042;-82
2022/11/10 12:58:22;;;;;;;22.20;4.68;;;12.90;99.90;;;;;;5015425;28;20586;-78
2022/11/10 13:01:03;;;;;;;21.00;4.40;;;13.00;99.90;;;;;;5013354;28;20060;-78
2022/11/10 13:03:31;;;;;;;20.07;4.10;;;13.00;99.90;;;;;;5015594;28;20042;-77
2022/11/10 13:06:00;;;;;;;22.20;5.03;;;13.00;99.90;;;;;;5014699;28;20287;-77
2022/11/10 13:08:55;;;;;;;22.20;4.67;;;13.00;99.90;;;;;;5015425;28;20288;-77
2022/11/10 13:11:28;;;;;;;16.13;3.20;;;13.10;99.90;;;;;;5012070;28;20735;-76
2022/11/10 13:13:57;;;;;;;19.87;4.13;;;13.10;99.90;;;;;;5013550;28;20301;-76